Terminal Aerodrome Forecast
Issued by NWS

Home | Current Version | Previous Version | Text Only | Print | Product List | Glossary On
Versions: 1 2 3 4 5 6 7 8 9 10 11 12 13
000
FTUS42 KMLB 011700
TAFFPR
TAF
KFPR 011740Z 0118/0218 13014G21KT P6SM BKN040
     FM020000 15008KT P6SM SCT040 BKN200
     FM020900 17008KT P6SM SCT040 BKN120=

USA.gov is the U.S. government's official web portal to all federal, state and local government web resources and services.